createdAt,value
2019-05-15T00:01:08.782Z,1.73
2019-05-15T00:03:39.082Z,2.00
2019-05-15T00:06:08.674Z,2.03
2019-05-15T00:08:38.666Z,2.03
2019-05-15T00:11:08.454Z,1.57
2019-05-15T00:13:38.840Z,1.60
2019-05-15T00:16:08.571Z,1.67
2019-05-15T00:18:39.083Z,1.80
2019-05-15T00:21:09.266Z,2.00
2019-05-15T00:23:39.111Z,1.80
2019-05-15T00:26:09.280Z,1.83
2019-05-15T00:28:38.943Z,1.50
2019-05-15T00:31:09.027Z,2.37
2019-05-15T00:33:39.393Z,1.93
2019-05-15T00:36:08.685Z,1.67
2019-05-15T00:38:38.994Z,1.77
2019-05-15T00:41:09.363Z,2.20
2019-05-15T00:43:38.914Z,1.60
2019-05-15T00:46:09.245Z,1.83
2019-05-15T00:48:39.863Z,1.83
2019-05-15T00:51:08.999Z,2.57
2019-05-15T00:53:38.996Z,1.73
2019-05-15T00:56:08.845Z,2.33
2019-05-15T00:58:39.947Z,1.67
2019-05-15T01:01:08.504Z,2.17
2019-05-15T01:03:38.796Z,2.40
2019-05-15T01:06:08.442Z,1.67
2019-05-15T01:08:39.261Z,1.83
2019-05-15T01:11:09.210Z,2.27
2019-05-15T01:13:38.914Z,1.83
2019-05-15T01:16:09.115Z,1.70
2019-05-15T01:18:38.624Z,2.30
2019-05-15T01:21:08.483Z,2.30
2019-05-15T01:23:39.046Z,2.00
2019-05-15T01:26:08.466Z,2.43
2019-05-15T01:28:38.389Z,2.17
2019-05-15T01:31:08.569Z,2.20
2019-05-15T01:33:39.200Z,2.50
2019-05-15T01:36:08.607Z,1.90
2019-05-15T01:38:38.850Z,2.37
2019-05-15T01:41:09.749Z,2.80
2019-05-15T01:43:39.194Z,2.00
2019-05-15T01:46:08.659Z,2.37
2019-05-15T01:48:38.894Z,2.33
2019-05-15T01:51:09.322Z,2.50
2019-05-15T01:53:38.622Z,2.10
2019-05-15T01:56:08.394Z,2.80
2019-05-15T01:58:38.158Z,2.60
2019-05-15T02:01:08.161Z,2.90
2019-05-15T02:03:38.517Z,3.10
2019-05-15T02:06:08.279Z,2.50
2019-05-15T02:08:39.326Z,2.70
2019-05-15T02:11:09.111Z,2.53
2019-05-15T02:13:38.990Z,2.60
2019-05-15T02:16:08.480Z,2.40
2019-05-15T02:18:39.246Z,2.57
2019-05-15T02:21:10.320Z,2.80
2019-05-15T02:23:39.965Z,2.90
2019-05-15T02:26:08.821Z,2.77
2019-05-15T02:28:38.441Z,6.23
2019-05-15T02:31:10.438Z,2.83
2019-05-15T02:33:40.020Z,3.20
2019-05-15T02:36:09.885Z,3.53
2019-05-15T02:38:41.029Z,3.03
2019-05-15T02:41:10.270Z,3.23
2019-05-15T02:43:39.484Z,2.63
2019-05-15T02:46:10.176Z,3.13
2019-05-15T02:48:41.066Z,3.23
2019-05-15T02:51:10.025Z,2.73
2019-05-15T02:53:39.822Z,3.13
2019-05-15T02:56:09.526Z,2.90
2019-05-15T02:58:39.735Z,2.60
2019-05-15T03:01:09.468Z,3.03
2019-05-15T03:03:39.202Z,3.30
2019-05-15T03:06:10.009Z,3.20
2019-05-15T03:08:39.793Z,2.67
2019-05-15T03:11:09.911Z,3.33
2019-05-15T03:13:39.512Z,2.70
2019-05-15T03:16:10.174Z,2.93
2019-05-15T03:18:40.033Z,3.07
2019-05-15T03:21:10.028Z,3.30
2019-05-15T03:23:40.540Z,3.10
2019-05-15T03:26:09.721Z,3.13
2019-05-15T03:28:39.531Z,2.50
2019-05-15T03:31:35.054Z,2.73
2019-05-15T03:33:45.758Z,3.60
2019-05-15T03:36:13.514Z,3.33
2019-05-15T03:38:40.762Z,3.23
2019-05-15T03:41:10.343Z,3.50
2019-05-15T03:43:39.649Z,3.13
2019-05-15T03:46:09.313Z,3.17
2019-05-15T03:48:40.348Z,3.60
2019-05-15T03:51:09.536Z,3.33
2019-05-15T03:53:39.903Z,2.90
2019-05-15T03:56:09.946Z,3.37
2019-05-15T03:58:40.087Z,3.17
2019-05-15T04:01:27.826Z,4.03
2019-05-15T04:03:40.140Z,3.37
2019-05-15T04:06:10.013Z,3.37
2019-05-15T04:08:39.698Z,3.90
2019-05-15T04:11:09.455Z,3.47
2019-05-15T04:13:39.783Z,3.80
2019-05-15T04:16:10.279Z,4.00
2019-05-15T04:18:39.791Z,4.13
2019-05-15T04:21:09.391Z,4.43
2019-05-15T04:23:39.456Z,4.37
2019-05-15T04:26:09.676Z,4.47
2019-05-15T04:28:41.562Z,3.90
2019-05-15T04:31:11.277Z,4.50
2019-05-15T04:33:40.409Z,4.87
2019-05-15T04:36:09.970Z,5.23
2019-05-15T04:38:39.429Z,5.03
2019-05-15T04:41:09.869Z,4.40
2019-05-15T04:43:44.771Z,5.10
2019-05-15T04:46:10.128Z,5.60
2019-05-15T04:48:39.848Z,4.40
2019-05-15T04:51:09.810Z,4.27
2019-05-15T04:53:39.931Z,5.00
2019-05-15T04:56:09.623Z,4.57
2019-05-15T04:58:39.478Z,5.03
2019-05-15T05:01:09.500Z,4.30
2019-05-15T05:03:39.642Z,4.87
2019-05-15T05:06:09.889Z,3.60
2019-05-15T05:08:40.063Z,3.80
2019-05-15T05:11:09.910Z,4.23
2019-05-15T05:13:39.419Z,4.73
2019-05-15T05:16:09.455Z,3.70
2019-05-15T05:18:41.136Z,4.17
2019-05-15T05:21:09.193Z,4.37
2019-05-15T05:23:38.463Z,3.93
2019-05-15T05:26:10.869Z,3.50
2019-05-15T05:28:38.078Z,3.70
2019-05-15T05:31:08.455Z,4.00
2019-05-15T05:33:38.200Z,3.67
2019-05-15T05:36:07.887Z,4.13
2019-05-15T05:38:38.751Z,4.47
2019-05-15T05:41:08.333Z,4.00
2019-05-15T05:43:38.318Z,3.83
2019-05-15T05:46:09.230Z,4.37
2019-05-15T05:48:38.513Z,4.17
2019-05-15T05:51:09.318Z,4.27
2019-05-15T05:53:38.581Z,4.00
2019-05-15T05:56:08.917Z,4.00
2019-05-15T05:58:39.059Z,4.10
2019-05-15T06:01:09.270Z,3.93
2019-05-15T06:03:38.817Z,4.37
2019-05-15T06:06:09.705Z,4.90
2019-05-15T06:08:39.019Z,4.00
2019-05-15T06:11:09.687Z,4.17
2019-05-15T06:13:38.784Z,3.77
2019-05-15T06:16:08.487Z,4.63
2019-05-15T06:18:38.847Z,4.50
2019-05-15T06:21:09.086Z,4.37
2019-05-15T06:23:44.721Z,3.70
2019-05-15T06:26:09.507Z,3.50
2019-05-15T06:28:39.424Z,3.83
2019-05-15T06:31:08.960Z,3.63
2019-05-15T06:33:38.567Z,3.63
2019-05-15T06:36:09.016Z,2.80
2019-05-15T06:38:39.257Z,2.90
2019-05-15T06:41:08.926Z,3.33
2019-05-15T06:43:38.917Z,2.80
2019-05-15T06:46:09.134Z,2.77
2019-05-15T06:48:38.236Z,2.83
2019-05-15T06:51:08.926Z,2.80
2019-05-15T06:53:38.435Z,2.50
2019-05-15T06:56:08.111Z,2.80
2019-05-15T06:58:38.556Z,2.33
2019-05-15T07:01:08.710Z,2.80
2019-05-15T07:03:39.305Z,3.20
2019-05-15T07:06:09.482Z,2.27
2019-05-15T07:08:38.613Z,2.40
2019-05-15T07:11:08.707Z,2.37
2019-05-15T07:13:38.389Z,2.90
2019-05-15T07:16:08.066Z,2.80
2019-05-15T07:18:39.161Z,2.80
2019-05-15T07:21:10.172Z,2.87
2019-05-15T07:23:39.199Z,2.90
2019-05-15T07:26:09.500Z,2.20
2019-05-15T07:28:38.686Z,2.63
2019-05-15T07:31:11.254Z,2.33
2019-05-15T07:33:43.130Z,2.73
2019-05-15T07:36:08.949Z,2.60
2019-05-15T07:38:39.101Z,2.80
2019-05-15T07:41:10.253Z,2.87
2019-05-15T07:43:38.694Z,2.30
2019-05-15T07:46:08.578Z,2.37
2019-05-15T07:48:38.407Z,2.23
2019-05-15T07:51:11.619Z,2.20
2019-05-15T07:53:38.678Z,2.20
2019-05-15T07:56:11.634Z,2.23
2019-05-15T07:58:38.794Z,2.10
2019-05-15T08:01:09.951Z,2.23
2019-05-15T08:03:53.841Z,2.27
2019-05-15T08:06:09.156Z,2.85
2019-05-15T08:08:39.304Z,2.43
2019-05-15T08:11:20.332Z,2.50
2019-05-15T08:13:39.276Z,2.43
2019-05-15T08:16:08.608Z,1.70
2019-05-15T08:18:39.409Z,1.85
2019-05-15T08:21:09.113Z,1.82
2019-05-15T08:23:39.111Z,2.87
2019-05-15T08:26:08.742Z,2.30
2019-05-15T08:28:38.317Z,2.30
2019-05-15T08:31:10.075Z,2.50
2019-05-15T08:33:38.984Z,1.87
2019-05-15T08:36:08.507Z,2.58
2019-05-15T08:38:38.396Z,2.55
2019-05-15T08:41:11.121Z,2.40
2019-05-15T08:43:38.446Z,2.02
2019-05-15T08:46:08.284Z,2.10
2019-05-15T08:48:38.395Z,1.90
2019-05-15T08:51:08.711Z,2.50
2019-05-15T08:53:38.284Z,2.95
2019-05-15T08:56:08.437Z,2.87
2019-05-15T08:58:38.161Z,2.27
2019-05-15T09:01:09.749Z,2.37
2019-05-15T09:03:38.922Z,2.00
2019-05-15T09:06:09.077Z,2.58
2019-05-15T09:08:39.071Z,2.17
2019-05-15T09:11:09.127Z,2.40
2019-05-15T09:13:43.412Z,2.22
2019-05-15T09:16:09.041Z,2.02
2019-05-15T09:18:39.188Z,1.92
2019-05-15T09:21:08.965Z,2.27
2019-05-15T09:23:38.911Z,2.00
2019-05-15T09:26:09.369Z,2.20
2019-05-15T09:28:39.057Z,2.22
2019-05-15T09:31:08.629Z,2.35
2019-05-15T09:33:38.720Z,1.85
2019-05-15T09:36:09.058Z,2.15
2019-05-15T09:38:39.152Z,2.00
2019-05-15T09:41:09.150Z,2.20
2019-05-15T09:43:38.890Z,1.90
2019-05-15T09:46:10.419Z,2.10
2019-05-15T09:48:42.207Z,2.10
2019-05-15T09:51:11.436Z,2.17
2019-05-15T09:53:40.391Z,1.92
2019-05-15T09:56:09.253Z,2.10
2019-05-15T09:58:38.364Z,3.12
2019-05-15T10:01:08.554Z,1.87
2019-05-15T10:03:39.616Z,1.80
2019-05-15T10:06:08.620Z,1.80
2019-05-15T10:08:39.706Z,2.02
2019-05-15T10:11:09.303Z,1.45
2019-05-15T10:13:38.717Z,1.70
2019-05-15T10:16:08.576Z,1.60
2019-05-15T10:18:38.986Z,1.50
2019-05-15T10:21:09.150Z,2.02
2019-05-15T10:23:40.313Z,1.90
2019-05-15T10:26:13.711Z,1.77
2019-05-15T10:28:40.134Z,2.00
2019-05-15T10:31:09.527Z,1.70
2019-05-15T10:33:39.387Z,1.50
2019-05-15T10:36:08.680Z,1.67
2019-05-15T10:38:39.140Z,1.98
2019-05-15T10:41:11.246Z,2.05
2019-05-15T10:43:46.467Z,1.60
2019-05-15T10:46:13.115Z,1.90
2019-05-15T10:48:40.082Z,2.10
2019-05-15T10:51:10.280Z,2.10
2019-05-15T10:53:39.413Z,1.50
2019-05-15T10:56:09.113Z,1.60
2019-05-15T10:58:39.169Z,2.27
2019-05-15T11:01:11.182Z,1.70
2019-05-15T11:03:40.072Z,1.70
2019-05-15T11:06:09.318Z,1.70
2019-05-15T11:08:40.513Z,1.70
2019-05-15T11:11:09.438Z,2.00
2019-05-15T11:13:38.421Z,1.57
2019-05-15T11:16:07.616Z,1.77
2019-05-15T11:18:39.215Z,2.10
2019-05-15T11:21:08.265Z,1.93
2019-05-15T11:23:39.529Z,1.75
2019-05-15T11:26:08.754Z,1.67
2019-05-15T11:28:39.127Z,1.65
2019-05-15T11:31:10.358Z,2.10
2019-05-15T11:33:39.197Z,1.37
2019-05-15T11:36:08.115Z,1.77
2019-05-15T11:38:38.153Z,1.22
2019-05-15T11:41:08.731Z,1.65
2019-05-15T11:43:38.537Z,1.67
2019-05-15T11:46:09.978Z,1.62
2019-05-15T11:48:39.300Z,2.15
2019-05-15T11:51:09.460Z,1.87
2019-05-15T11:53:39.733Z,2.40
2019-05-15T11:56:09.663Z,2.07
2019-05-15T11:58:39.082Z,2.50
2019-05-15T12:01:08.652Z,1.67
2019-05-15T12:03:38.568Z,1.50
2019-05-15T12:06:18.626Z,1.22
2019-05-15T12:08:38.719Z,1.65
2019-05-15T12:11:11.820Z,1.87
2019-05-15T12:13:38.317Z,1.30
2019-05-15T12:16:07.472Z,1.70
2019-05-15T12:18:38.882Z,1.62
2019-05-15T12:21:06.773Z,1.45
2019-05-15T12:23:38.161Z,1.80
2019-05-15T12:26:09.004Z,1.60
2019-05-15T12:28:40.242Z,1.55
2019-05-15T12:31:08.966Z,1.97
2019-05-15T12:33:38.588Z,1.60
2019-05-15T12:36:10.590Z,1.33
2019-05-15T12:38:39.731Z,1.75
2019-05-15T13:01:18.208Z,1.80
2019-05-15T13:03:45.914Z,1.40
2019-05-15T13:06:14.713Z,1.47
2019-05-15T13:08:43.509Z,1.30
2019-05-15T13:11:15.234Z,1.62
2019-05-15T13:13:43.297Z,1.40
2019-05-15T13:16:12.118Z,1.35
2019-05-15T13:18:40.897Z,1.20
2019-05-15T13:21:10.161Z,1.47
2019-05-15T13:23:38.977Z,1.67
2019-05-15T13:26:21.478Z,2.08
2019-05-15T13:28:38.905Z,1.82
2019-05-15T13:31:09.166Z,1.95
2019-05-15T13:33:38.735Z,2.22
2019-05-15T13:36:08.985Z,1.52
2019-05-15T13:38:38.247Z,2.22
2019-05-15T13:41:09.478Z,1.60
2019-05-15T13:43:38.685Z,2.03
2019-05-15T13:46:08.803Z,2.37
2019-05-15T13:48:38.569Z,1.70
2019-05-15T13:51:09.092Z,1.50
2019-05-15T13:53:38.654Z,1.60
2019-05-15T13:56:07.734Z,1.63
2019-05-15T13:58:38.847Z,1.97
2019-05-15T14:01:09.388Z,2.03
2019-05-15T14:03:39.043Z,1.50
2019-05-15T14:06:09.256Z,1.90
2019-05-15T14:08:39.272Z,1.37
2019-05-15T14:11:08.841Z,1.70
2019-05-15T14:13:39.195Z,1.40
2019-05-15T14:16:09.711Z,1.67
2019-05-15T14:18:39.139Z,1.67
2019-05-15T14:21:09.035Z,1.67
2019-05-15T14:23:38.341Z,1.80
2019-05-15T14:26:18.079Z,1.47
2019-05-15T14:28:58.681Z,1.63
2019-05-15T14:31:28.511Z,1.40
2019-05-15T14:33:58.072Z,1.67
2019-05-15T14:36:28.727Z,1.50
2019-05-15T14:38:58.731Z,1.77
2019-05-15T14:41:29.269Z,2.00
2019-05-15T14:44:11.993Z,1.30
2019-05-15T14:46:29.022Z,1.93
2019-05-15T14:48:58.311Z,1.93
2019-05-15T14:51:28.493Z,1.87
2019-05-15T14:53:58.351Z,1.70
2019-05-15T14:56:27.442Z,2.27
2019-05-15T14:58:58.453Z,2.10
2019-05-15T15:01:26.883Z,1.97
2019-05-15T15:03:58.002Z,1.83
2019-05-15T15:06:26.621Z,2.13
2019-05-15T15:08:55.789Z,1.97
2019-05-15T15:11:24.789Z,2.00
2019-05-15T15:13:53.657Z,1.50
2019-05-15T15:16:22.451Z,1.70
2019-05-15T15:18:51.245Z,2.07
2019-05-15T15:21:22.693Z,1.93
2019-05-15T15:23:50.989Z,1.60
2019-05-15T15:26:19.773Z,1.27
2019-05-15T15:28:49.049Z,1.52
2019-05-15T15:31:19.131Z,1.42
2019-05-15T15:33:48.657Z,1.32
2019-05-15T15:36:17.666Z,1.87
2019-05-15T15:38:48.451Z,1.35
2019-05-15T15:41:17.638Z,1.70
2019-05-15T15:43:48.487Z,1.23
2019-05-15T15:46:24.658Z,2.00
2019-05-15T15:48:52.517Z,1.40
2019-05-15T15:51:21.484Z,1.60
2019-05-15T15:53:50.381Z,1.97
2019-05-15T15:56:19.861Z,1.40
2019-05-15T15:58:49.303Z,1.67
2019-05-15T16:01:18.617Z,1.80
2019-05-15T16:03:48.365Z,1.50
2019-05-15T16:06:18.777Z,1.50
2019-05-15T16:08:55.612Z,1.20
2019-05-15T16:11:21.594Z,1.53
2019-05-15T16:13:50.484Z,2.20
2019-05-15T16:16:19.344Z,1.90
2019-05-15T16:18:49.135Z,1.83
2019-05-15T16:21:19.276Z,1.93
2019-05-15T16:23:48.330Z,2.30
2019-05-15T16:26:19.313Z,1.60
2019-05-15T16:28:48.929Z,1.87
2019-05-15T16:31:18.604Z,1.10
2019-05-15T16:33:48.132Z,1.70
2019-05-15T16:36:18.300Z,1.83
2019-05-15T16:38:48.220Z,1.70
2019-05-15T16:41:19.419Z,1.70
2019-05-15T16:43:48.666Z,1.70
2019-05-15T16:46:19.254Z,1.60
2019-05-15T16:48:49.471Z,1.50
2019-05-15T16:51:18.753Z,1.63
2019-05-15T16:53:48.890Z,1.10
2019-05-15T16:56:18.967Z,1.23
2019-05-15T16:58:48.178Z,1.57
2019-05-15T17:01:18.757Z,1.60
2019-05-15T17:03:48.486Z,1.20
2019-05-15T17:06:18.619Z,1.70
2019-05-15T17:08:48.760Z,1.30
2019-05-15T17:11:19.923Z,1.27
2019-05-15T17:13:48.566Z,1.80
2019-05-15T17:16:18.774Z,1.87
2019-05-15T17:18:48.619Z,2.00
2019-05-15T17:21:19.024Z,1.40
2019-05-15T17:23:49.031Z,2.27
2019-05-15T17:26:18.950Z,1.67
2019-05-15T17:28:48.008Z,2.10
2019-05-15T17:31:18.127Z,1.90
2019-05-15T17:33:48.968Z,1.93
2019-05-15T17:36:18.556Z,1.80
2019-05-15T17:38:48.724Z,2.10
2019-05-15T17:41:18.115Z,1.70
2019-05-15T17:43:48.613Z,1.73
2019-05-15T17:46:17.596Z,1.73
2019-05-15T17:48:54.041Z,1.90
2019-05-15T17:51:17.749Z,1.60
2019-05-15T17:53:48.832Z,1.70
2019-05-15T17:56:17.784Z,1.73
2019-05-15T17:58:48.731Z,1.80
2019-05-15T18:01:19.243Z,2.00
2019-05-15T18:03:48.675Z,1.37
2019-05-15T18:06:18.019Z,1.87
2019-05-15T18:08:48.574Z,1.97
2019-05-15T18:11:18.728Z,1.80
2019-05-15T18:13:48.702Z,1.60
2019-05-15T18:16:18.263Z,1.80
2019-05-15T18:18:47.883Z,1.83
2019-05-15T18:21:18.399Z,1.57
2019-05-15T18:23:48.641Z,2.17
2019-05-15T18:26:18.321Z,1.80
2019-05-15T18:28:48.928Z,2.20
2019-05-15T18:31:19.212Z,2.77
2019-05-15T18:33:54.498Z,2.17
2019-05-15T18:36:34.233Z,2.20
2019-05-15T18:39:28.365Z,2.47
2019-05-15T18:42:29.077Z,1.73
2019-05-15T18:45:21.492Z,2.13
2019-05-15T18:47:52.221Z,3.03
2019-05-15T18:50:21.478Z,5.13
2019-05-15T18:52:50.595Z,2.60
2019-05-15T18:55:19.919Z,1.97
2019-05-15T18:57:54.301Z,2.00
2019-05-15T19:00:20.969Z,2.50
2019-05-15T19:02:50.178Z,2.17
2019-05-15T19:05:19.058Z,2.03
2019-05-15T19:07:48.705Z,2.63
2019-05-15T19:10:19.270Z,1.83
2019-05-15T19:12:48.538Z,1.80
2019-05-15T19:15:18.994Z,1.57
2019-05-15T19:17:48.044Z,1.80
2019-05-15T19:20:18.982Z,1.97
2019-05-15T19:22:48.914Z,1.90
2019-05-15T19:25:18.233Z,1.70
2019-05-15T19:27:47.677Z,1.57
2019-05-15T19:30:19.101Z,1.50
2019-05-15T19:33:11.713Z,1.70
2019-05-15T19:35:41.041Z,1.60
2019-05-15T19:38:11.228Z,1.30
2019-05-15T19:40:40.189Z,1.30
2019-05-15T19:43:09.323Z,1.70
2019-05-15T19:45:40.651Z,1.20
2019-05-15T19:48:09.409Z,1.57
2019-05-15T19:50:38.894Z,1.40
2019-05-15T19:53:11.756Z,1.70
2019-05-15T19:55:41.038Z,1.63
2019-05-15T19:58:09.866Z,1.73
2019-05-15T20:00:39.094Z,2.30
2019-05-15T20:03:08.497Z,2.00
2019-05-15T20:05:38.107Z,1.37
2019-05-15T20:08:07.796Z,1.50
2019-05-15T20:10:39.196Z,1.43
2019-05-15T20:13:07.554Z,1.57
2019-05-15T20:15:37.982Z,1.50
2019-05-15T20:18:07.910Z,2.10
2019-05-15T20:20:38.621Z,1.73
2019-05-15T20:23:08.544Z,1.77
2019-05-15T20:25:38.313Z,1.57
2019-05-15T20:28:08.469Z,1.30
2019-05-15T20:30:38.924Z,1.83
2019-05-15T20:33:08.923Z,1.50
2019-05-15T20:35:38.598Z,1.53
2019-05-15T20:38:07.677Z,2.00
2019-05-15T20:40:36.929Z,1.60
2019-05-15T20:43:07.976Z,1.60
2019-05-15T20:45:36.701Z,1.77
2019-05-15T20:48:05.636Z,1.90
2019-05-15T20:50:34.886Z,1.90
2019-05-15T20:53:03.822Z,2.43
2019-05-15T20:55:32.661Z,1.87
2019-05-15T20:58:01.451Z,1.50
2019-05-15T21:00:30.600Z,1.77
2019-05-15T21:02:59.473Z,1.70
2019-05-15T21:05:28.316Z,2.97
2019-05-15T21:07:57.405Z,1.50
2019-05-15T21:10:26.256Z,1.77
2019-05-15T21:15:21.113Z,1.60
2019-05-15T21:17:57.451Z,1.80
2019-05-15T21:20:19.085Z,1.57
2019-05-15T21:22:49.268Z,1.93
2019-05-15T21:25:19.783Z,1.90
2019-05-15T21:27:49.130Z,1.77
2019-05-15T21:30:19.257Z,1.67
2019-05-15T21:32:49.422Z,1.70
2019-05-15T21:35:18.816Z,1.70
2019-05-15T21:37:49.017Z,1.70
2019-05-15T21:40:18.182Z,1.63
2019-05-15T21:42:49.204Z,1.47
2019-05-15T21:45:18.627Z,1.43
2019-05-15T21:47:47.508Z,1.67
2019-05-15T21:50:19.031Z,1.80
2019-05-15T21:52:49.421Z,2.13
2019-05-15T21:55:18.930Z,1.97
2019-05-15T21:57:47.963Z,1.87
2019-05-15T22:00:28.943Z,1.53
2019-05-15T22:02:58.573Z,1.40
2019-05-15T22:05:28.312Z,1.93
2019-05-15T22:07:58.756Z,1.80
2019-05-15T22:10:28.765Z,2.20
2019-05-15T22:12:59.076Z,1.80
2019-05-15T22:15:28.859Z,1.83
2019-05-15T22:17:57.792Z,1.57
2019-05-15T22:20:29.899Z,2.00
2019-05-15T22:22:59.592Z,2.40
2019-05-15T22:25:28.211Z,1.83
2019-05-15T22:27:58.010Z,2.10
2019-05-15T22:30:29.910Z,2.20
2019-05-15T22:32:58.782Z,1.43
2019-05-15T22:35:29.427Z,2.13
2019-05-15T22:37:58.700Z,1.90
2019-05-15T22:40:28.957Z,2.00
2019-05-15T22:42:59.190Z,1.87
2019-05-15T22:45:28.841Z,2.07
2019-05-15T22:47:58.548Z,2.00
2019-05-15T22:50:28.357Z,1.87
2019-05-15T22:52:58.629Z,1.87
2019-05-15T22:55:29.032Z,2.30
2019-05-15T22:57:58.583Z,1.70
2019-05-15T23:00:29.096Z,2.37
2019-05-15T23:02:58.393Z,2.23
2019-05-15T23:05:29.317Z,2.20
2019-05-15T23:07:59.003Z,1.90
2019-05-15T23:10:29.330Z,2.90
2019-05-15T23:12:58.369Z,2.37
2019-05-15T23:15:28.096Z,2.17
2019-05-15T23:17:58.265Z,2.17
2019-05-15T23:20:28.548Z,2.30
2019-05-15T23:22:58.641Z,2.13
2019-05-15T23:25:29.049Z,2.33
2019-05-15T23:27:58.470Z,2.33
2019-05-15T23:30:28.860Z,2.53
2019-05-15T23:32:58.291Z,2.50
2019-05-15T23:35:37.310Z,2.60
2019-05-15T23:37:58.501Z,2.30
2019-05-15T23:40:28.807Z,2.57
2019-05-15T23:42:57.816Z,2.50
2019-05-15T23:45:28.771Z,2.30
2019-05-15T23:47:57.994Z,3.20
2019-05-15T23:50:28.885Z,2.53
2019-05-15T23:52:58.497Z,2.27
2019-05-15T23:55:28.511Z,3.20
2019-05-15T23:57:58.426Z,2.70
